Time;durP1;ratioP1;P1;durP2;ratioP2;P2;SDS_P1;SDS_P2;PMS_P1;PMS_P2;Temp;Humidity;BMP_temperature;BMP_pressure;BME280_temperature;BME280_humidity;BME280_pressure;Samples;Min_cycle;Max_cycle;Signal;HPM_P1;HPM_P2
2022/06/02 00:01:41;;;;;;;2.97;0.87;;;;;;;13.72;59.04;98775.50;5093246;28;20285;-52
2022/06/02 00:04:19;;;;;;;2.00;1.10;;;;;;;13.73;59.40;98775.34;5094017;28;20208;-52
2022/06/02 00:06:51;;;;;;;1.90;1.00;;;;;;;13.75;58.06;98784.88;5094494;28;20180;-52
2022/06/02 00:09:31;;;;;;;1.87;0.87;;;;;;;13.76;58.79;98779.44;5095650;28;20210;-51
2022/06/02 00:12:08;;;;;;;2.47;1.00;;;;;;;13.73;58.98;98777.16;5095541;28;20187;-51
2022/06/02 00:14:48;;;;;;;2.83;0.83;;;;;;;13.71;59.16;98784.34;5095019;28;20186;-51
2022/06/02 00:17:26;;;;;;;1.57;0.90;;;;;;;13.71;59.05;98782.56;5096013;28;20216;-51
2022/06/02 00:20:00;;;;;;;2.10;1.23;;;;;;;13.66;59.75;98779.63;5094263;28;20593;-51
2022/06/02 00:22:35;;;;;;;4.03;1.13;;;;;;;13.63;60.11;98781.75;5095631;28;20220;-51
2022/06/02 00:25:09;;;;;;;1.57;0.80;;;;;;;13.59;60.13;98773.41;5095441;28;20189;-51
2022/06/02 00:27:44;;;;;;;1.97;0.90;;;;;;;13.58;60.26;98772.56;5094312;28;20216;-51
2022/06/02 00:30:19;;;;;;;1.73;0.90;;;;;;;13.54;59.27;98776.53;5093082;28;20451;-51
2022/06/02 00:32:51;;;;;;;1.50;0.87;;;;;;;13.51;60.26;98776.03;5092615;28;20241;-51
2022/06/02 00:35:28;;;;;;;3.50;1.00;;;;;;;13.52;60.61;98782.94;5094295;28;20542;-51
2022/06/02 00:38:01;;;;;;;1.43;1.00;;;;;;;13.42;61.14;98783.09;5094033;28;20226;-51
2022/06/02 00:40:30;;;;;;;4.47;1.10;;;;;;;13.38;61.44;98785.19;5094557;28;20186;-51
2022/06/02 00:43:47;;;;;;;1.93;0.90;;;;;;;13.38;60.72;98784.38;5093264;28;20558;-51
2022/06/02 00:46:23;;;;;;;2.37;1.00;;;;;;;13.39;61.19;98789.47;5089892;28;20226;-51
2022/06/02 00:48:59;;;;;;;1.47;0.87;;;;;;;13.36;61.66;98789.78;5095391;28;20603;-51
2022/06/02 00:51:38;;;;;;;2.80;1.00;;;;;;;13.39;61.33;98786.00;5093760;28;20657;-51
2022/06/02 01:00:12;;;;;;;2.47;1.10;;;;;;;13.40;61.49;98793.72;5051310;28;20563;-51
2022/06/02 01:02:46;;;;;;;4.37;0.90;;;;;;;13.41;61.08;98790.16;5086616;28;20247;-51
2022/06/02 01:05:15;;;;;;;2.20;1.10;;;;;;;13.44;61.44;98783.75;5093314;28;20642;-52
2022/06/02 01:07:56;;;;;;;5.33;1.20;;;;;;;13.44;61.89;98778.50;5092014;28;20213;-52
2022/06/02 01:10:44;;;;;;;3.53;1.00;;;;;;;13.40;62.02;98775.38;5094036;28;20189;-51
2022/06/02 01:13:32;;;;;;;1.63;1.10;;;;;;;13.33;61.56;98770.94;5093298;28;20301;-51
2022/06/02 01:16:07;;;;;;;2.73;1.00;;;;;;;13.32;61.19;98774.53;5094148;28;20551;-53
2022/06/02 01:18:43;;;;;;;3.73;1.30;;;;;;;13.29;62.72;98778.31;5096459;28;20208;-51
2022/06/02 01:21:31;;;;;;;4.37;1.20;;;;;;;13.29;62.35;98775.69;5097945;28;20183;-52
2022/06/02 01:24:26;;;;;;;1.90;1.13;;;;;;;13.25;62.87;98774.38;5097379;28;20189;-52
2022/06/02 01:27:22;;;;;;;2.63;1.13;;;;;;;13.23;63.07;98779.81;5098510;28;20573;-51
2022/06/02 01:30:17;;;;;;;2.60;1.40;;;;;;;13.16;63.40;98780.63;5098809;28;20217;-54
2022/06/02 01:32:55;;;;;;;1.90;1.13;;;;;;;13.12;62.92;98774.91;5089558;28;20227;-53
2022/06/02 01:35:29;;;;;;;11.77;1.13;;;;;;;13.14;63.25;98773.72;5096807;28;20190;-52
2022/06/02 01:38:03;;;;;;;4.00;1.20;;;;;;;13.12;62.31;98780.94;5097855;28;20210;-53
2022/06/02 01:40:46;;;;;;;1.80;1.00;;;;;;;13.11;63.46;98784.53;5097809;28;20216;-51
2022/06/02 01:43:16;;;;;;;2.37;1.00;;;;;;;13.10;64.16;98785.53;5096553;28;20401;-54
2022/06/02 01:45:58;;;;;;;4.30;1.17;;;;;;;13.11;62.47;98778.50;5097444;28;20186;-54
2022/06/02 01:48:34;;;;;;;2.50;1.20;;;;;;;13.13;63.26;98787.81;5096367;28;20874;-51
2022/06/02 01:51:11;;;;;;;1.63;0.90;;;;;;;13.13;62.61;98793.06;5096926;28;20186;-51
2022/06/02 01:53:57;;;;;;;1.87;1.20;;;;;;;13.18;62.62;98795.22;5096506;28;20743;-51
2022/06/02 01:56:37;;;;;;;2.93;1.10;;;;;;;13.14;62.72;98794.69;5096533;28;20558;-52
2022/06/02 01:59:20;;;;;;;2.10;1.13;;;;;;;13.32;59.46;98795.50;5096220;28;20577;-52
2022/06/02 02:01:58;;;;;;;4.17;1.07;;;;;;;13.32;61.04;98798.97;5096740;28;20195;-51
2022/06/02 02:04:48;;;;;;;1.60;0.93;;;;;;;13.38;63.17;98795.69;5096517;28;20186;-51
2022/06/02 02:07:24;;;;;;;5.00;1.07;;;;;;;13.46;61.14;98794.06;5097212;28;20170;-51
2022/06/02 02:09:59;;;;;;;2.70;1.33;;;;;;;13.41;62.21;98791.91;5098059;28;20189;-51
2022/06/02 02:12:42;;;;;;;2.47;1.13;;;;;;;13.39;62.39;98797.31;5096085;28;20182;-51
2022/06/02 02:15:26;;;;;;;1.70;1.33;;;;;;;13.38;62.89;98800.94;5096494;28;20246;-51
2022/06/02 02:18:37;;;;;;;3.40;1.10;;;;;;;13.40;62.08;98793.72;5095803;28;20570;-51
2022/06/02 02:21:17;;;;;;;2.40;1.00;;;;;;;13.45;62.78;98793.25;5096531;28;20188;-51
2022/06/02 02:23:58;;;;;;;3.07;1.20;;;;;;;13.45;63.12;98790.63;5096448;28;20195;-51
2022/06/02 02:26:33;;;;;;;2.70;1.27;;;;;;;13.45;63.02;98795.88;5096073;28;20269;-51
2022/06/02 02:29:10;;;;;;;3.03;1.10;;;;;;;13.45;64.08;98801.09;5094757;28;20540;-51
2022/06/02 02:31:45;;;;;;;5.17;1.40;;;;;;;13.50;62.53;98793.56;5095920;28;20671;-51
2022/06/02 02:34:25;;;;;;;4.70;1.30;;;;;;;13.53;61.44;98797.69;5095975;28;20236;-51
2022/06/02 02:37:04;;;;;;;1.10;1.00;;;;;;;13.63;59.27;98802.72;5095663;28;20197;-53
2022/06/02 02:39:39;;;;;;;1.83;1.20;;;;;;;13.79;57.81;98809.75;5095720;28;20188;-53
2022/06/02 02:42:13;;;;;;;3.13;1.13;;;;;;;13.77;59.61;98806.50;5095436;28;20278;-51
2022/06/02 02:44:47;;;;;;;2.77;1.20;;;;;;;13.77;59.28;98804.69;5095844;28;20182;-51
2022/06/02 02:47:20;;;;;;;1.70;1.10;;;;;;;13.80;58.42;98806.97;5095253;28;20666;-50
2022/06/02 02:49:52;;;;;;;4.87;1.37;;;;;;;13.86;57.92;98811.56;5095493;28;20193;-52
2022/06/02 02:52:30;;;;;;;1.37;1.20;;;;;;;13.87;57.10;98807.94;5094405;28;20204;-50
2022/06/02 02:55:03;;;;;;;2.27;1.07;;;;;;;13.86;57.72;98810.72;5095362;28;20297;-52
2022/06/02 02:57:42;;;;;;;3.77;1.33;;;;;;;13.84;57.44;98807.44;5095198;28;20217;-51
2022/06/02 03:00:15;;;;;;;4.30;1.20;;;;;;;13.81;58.69;98813.03;5095339;28;20193;-52
2022/06/02 03:02:51;;;;;;;3.63;1.57;;;;;;;13.76;60.43;98818.78;5095385;28;20203;-53
2022/06/02 03:05:26;;;;;;;3.13;1.20;;;;;;;13.76;59.45;98812.72;5095247;28;20695;-51
2022/06/02 03:08:05;;;;;;;4.17;1.43;;;;;;;13.80;57.16;98816.63;5093365;28;20577;-50
2022/06/02 03:10:37;;;;;;;1.40;1.10;;;;;;;13.71;59.27;98815.84;5094892;28;20182;-52
2022/06/02 03:13:17;;;;;;;4.00;1.17;;;;;;;13.67;58.18;98819.78;5094493;28;20269;-51
2022/06/02 03:15:47;;;;;;;2.03;1.20;;;;;;;13.59;59.48;98810.13;5094903;28;20208;-51
2022/06/02 03:18:38;;;;;;;3.50;1.33;;;;;;;13.53;59.66;98811.59;5094372;28;20548;-52
2022/06/02 03:21:16;;;;;;;3.77;1.20;;;;;;;13.40;62.06;98804.22;5083363;28;20291;-51
2022/06/02 03:24:06;;;;;;;3.23;1.17;;;;;;;13.29;60.95;98799.28;5095128;28;20189;-51
2022/06/02 03:26:46;;;;;;;1.70;1.20;;;;;;;13.22;61.60;98803.56;5094994;28;20183;-51
2022/06/02 03:29:24;;;;;;;2.13;1.10;;;;;;;13.13;60.96;98806.16;5093554;28;20577;-51
2022/06/02 03:32:00;;;;;;;2.90;1.00;;;;;;;13.11;61.77;98807.31;5094569;28;20228;-52
2022/06/02 03:34:36;;;;;;;2.17;1.40;;;;;;;13.21;59.89;98815.00;5095062;28;20229;-50
2022/06/02 03:37:32;;;;;;;7.73;1.40;;;;;;;13.27;59.70;98809.13;5094536;28;20183;-52
2022/06/02 03:40:20;;;;;;;3.23;1.10;;;;;;;13.29;60.27;98815.81;5094208;28;20186;-51
2022/06/02 03:42:56;;;;;;;3.20;1.20;;;;;;;13.34;59.71;98806.66;5094593;28;20554;-50
2022/06/02 03:45:40;;;;;;;1.30;1.10;;;;;;;13.30;60.85;98808.78;5095284;28;20177;-51
2022/06/02 03:48:29;;;;;;;3.47;1.33;;;;;;;13.25;61.78;98813.72;5097071;28;20201;-53
2022/06/02 03:51:10;;;;;;;2.37;1.10;;;;;;;13.18;62.43;98815.34;5095038;28;20193;-53
2022/06/02 03:53:58;;;;;;;2.43;1.30;;;;;;;13.16;61.29;98812.06;5094586;28;20244;-53
2022/06/02 03:56:46;;;;;;;1.30;0.90;;;;;;;13.17;61.53;98816.31;5094136;28;20194;-53
2022/06/02 03:59:31;;;;;;;2.27;1.27;;;;;;;13.26;59.93;98823.22;5094192;28;20202;-53
2022/06/02 04:02:01;;;;;;;2.20;1.30;;;;;;;13.35;60.04;98824.84;5094225;28;20539;-53
2022/06/02 04:04:42;;;;;;;4.40;1.10;;;;;;;13.37;60.22;98817.66;5094381;28;20209;-51
2022/06/02 04:07:28;;;;;;;1.73;1.00;;;;;;;13.36;60.22;98815.16;5094034;28;20194;-50
2022/06/02 04:10:02;;;;;;;2.20;1.33;;;;;;;13.35;60.79;98814.38;5094343;28;20670;-51
2022/06/02 04:15:44;;;;;;;4.13;1.23;;;;;;;13.35;61.94;98821.41;5093017;28;20213;-51
2022/06/02 04:18:25;;;;;;;1.87;1.30;;;;;;;13.28;62.12;98814.19;5093769;28;20206;-51
2022/06/02 04:21:07;;;;;;;1.87;1.10;;;;;;;13.23;62.51;98815.66;5094369;28;20196;-51
2022/06/02 04:24:06;;;;;;;1.63;1.30;;;;;;;13.17;63.31;98811.91;5095412;28;20192;-50
2022/06/02 04:26:48;;;;;;;1.30;1.20;;;;;;;13.04;64.90;98808.94;5078624;28;20604;-51
2022/06/02 04:29:30;;;;;;;2.13;1.50;;;;;;;12.98;64.86;98807.78;5094341;28;20212;-51
2022/06/02 04:32:05;;;;;;;3.47;1.70;;;;;;;12.97;64.26;98806.16;5092580;28;20201;-50
2022/06/02 04:34:43;;;;;;;2.07;1.20;;;;;;;12.97;65.32;98814.84;5093755;28;20267;-53
2022/06/02 04:37:17;;;;;;;2.37;1.10;;;;;;;12.91;65.19;98806.78;5093546;28;20311;-51
2022/06/02 04:39:53;;;;;;;3.87;1.40;;;;;;;12.91;65.74;98809.41;5093782;28;20228;-51
2022/06/02 04:42:28;;;;;;;1.80;1.40;;;;;;;12.88;65.71;98815.81;5094186;28;20217;-51
2022/06/02 04:45:08;;;;;;;1.27;1.03;;;;;;;12.86;64.60;98812.53;5093500;28;20194;-53
2022/06/02 04:47:51;;;;;;;2.43;1.50;;;;;;;12.86;65.24;98817.75;5092180;28;20615;-51
2022/06/02 04:50:25;;;;;;;3.90;1.43;;;;;;;12.91;65.26;98825.13;5094030;28;20656;-51
2022/06/02 04:53:02;;;;;;;1.63;1.30;;;;;;;12.97;64.65;98827.09;5097358;28;20194;-50
2022/06/02 04:55:38;;;;;;;3.37;1.47;;;;;;;13.10;64.51;98830.06;5096533;28;20221;-51
2022/06/02 04:58:16;;;;;;;4.63;1.23;;;;;;;13.21;64.99;98822.88;5097314;28;20232;-51
2022/06/02 05:00:51;;;;;;;3.67;1.10;;;;;;;13.30;65.30;98829.75;5097770;28;20197;-53
2022/06/02 05:03:26;;;;;;;2.97;1.30;;;;;;;13.39;65.59;98834.03;5098834;28;20267;-51
2022/06/02 05:06:04;;;;;;;1.83;1.07;;;;;;;13.50;65.05;98832.91;5098019;28;20191;-51
2022/06/02 05:08:55;;;;;;;4.13;1.20;;;;;;;13.64;65.16;98835.84;5097012;28;20212;-52
2022/06/02 05:11:46;;;;;;;1.53;1.07;;;;;;;13.70;64.94;98833.41;5097475;28;20187;-51
2022/06/02 05:14:28;;;;;;;1.43;1.17;;;;;;;13.85;64.13;98837.94;5097699;28;20232;-51
2022/06/02 05:17:08;;;;;;;2.67;1.10;;;;;;;14.03;64.44;98830.69;5097672;28;20188;-51
2022/06/02 05:20:01;;;;;;;2.00;1.07;;;;;;;14.13;63.75;98841.00;5097182;28;20674;-52
2022/06/02 05:23:02;;;;;;;1.37;1.00;;;;;;;14.36;62.92;98847.34;5097475;28;20198;-51
2022/06/02 05:26:29;;;;;;;1.30;1.20;;;;;;;14.45;63.87;98848.94;5096692;28;20636;-50
2022/06/02 05:29:12;;;;;;;1.10;1.00;;;;;;;14.38;64.69;98843.53;4956009;29;20304;-51
2022/06/02 05:32:08;;;;;;;2.13;1.20;;;;;;;14.26;65.01;98844.91;5090003;28;20208;-50
2022/06/02 05:35:09;;;;;;;3.70;1.17;;;;;;;14.28;63.26;98848.19;5095075;28;20261;-52
2022/06/02 05:38:00;;;;;;;2.83;1.00;;;;;;;14.24;62.97;98844.28;5083117;28;20213;-52
2022/06/02 05:40:35;;;;;;;3.00;1.20;;;;;;;14.24;63.18;98855.56;5096631;28;20182;-52
2022/06/02 05:43:14;;;;;;;2.87;1.30;;;;;;;14.31;63.92;98848.66;5096203;28;20177;-51
2022/06/02 05:45:57;;;;;;;3.93;1.10;;;;;;;14.22;65.11;98843.63;5096423;28;20217;-50
2022/06/02 05:48:40;;;;;;;1.50;1.10;;;;;;;14.21;62.33;98849.84;5096153;28;20206;-51
2022/06/02 05:51:15;;;;;;;2.90;1.17;;;;;;;14.52;61.42;98855.16;5096405;28;20195;-51
2022/06/02 05:53:59;;;;;;;3.70;1.07;;;;;;;14.71;62.41;98863.66;5096174;28;20186;-52
2022/06/02 05:56:35;;;;;;;1.77;1.20;;;;;;;14.84;61.71;98858.63;5097225;28;20247;-51
2022/06/02 05:59:26;;;;;;;2.90;1.00;;;;;;;14.89;60.55;98866.81;5096791;28;20210;-51
2022/06/02 06:02:15;;;;;;;3.37;1.10;;;;;;;14.89;61.26;98866.81;5096765;28;20195;-52
2022/06/02 06:05:04;;;;;;;2.27;1.13;;;;;;;15.12;61.91;98870.47;5096838;28;20187;-50
2022/06/02 06:07:51;;;;;;;3.10;1.10;;;;;;;15.32;60.41;98881.34;5096001;28;20202;-51
2022/06/02 06:10:30;;;;;;;1.73;1.30;;;;;;;15.44;60.17;98873.84;5096336;28;20188;-51
2022/06/02 06:13:34;;;;;;;1.93;1.10;;;;;;;15.72;61.43;98881.19;5097360;28;20201;-52
2022/06/02 06:16:09;;;;;;;4.00;1.07;;;;;;;15.81;59.39;98874.06;5096664;28;20217;-51
2022/06/02 06:18:49;;;;;;;2.87;1.13;;;;;;;16.04;59.22;98874.03;5095963;28;20225;-51
2022/06/02 06:21:41;;;;;;;2.37;1.10;;;;;;;15.98;58.54;98877.38;5094993;28;20200;-51
2022/06/02 06:25:02;;;;;;;2.37;1.23;;;;;;;15.97;59.89;98873.09;5095054;28;20424;-53
2022/06/02 06:27:35;;;;;;;1.47;1.03;;;;;;;15.96;59.84;98877.53;5052705;28;20230;-51
2022/06/02 06:30:08;;;;;;;3.27;1.17;;;;;;;16.02;61.07;98882.09;5052774;28;20582;-51
2022/06/02 06:32:41;;;;;;;1.60;1.23;;;;;;;16.13;60.20;98878.22;5052697;28;20567;-50
2022/06/02 06:35:23;;;;;;;4.73;1.10;;;;;;;16.31;60.54;98872.56;5052723;28;20246;-52
2022/06/02 06:38:06;;;;;;;1.53;1.20;;;;;;;16.54;59.71;98874.28;5052762;28;20975;-51
2022/06/02 06:40:51;;;;;;;2.00;1.20;;;;;;;16.80;60.03;98873.78;5052333;28;20579;-51
2022/06/02 06:43:33;;;;;;;2.57;1.20;;;;;;;17.02;57.76;98873.03;5052633;28;20246;-51
2022/06/02 06:46:09;;;;;;;5.47;1.30;;;;;;;17.23;57.46;98873.06;5036657;28;20189;-53
2022/06/02 06:48:42;;;;;;;3.33;1.20;;;;;;;17.38;57.78;98870.38;5052211;28;20225;-53
2022/06/02 06:51:22;;;;;;;3.33;1.27;;;;;;;17.48;55.24;98874.50;5052428;28;20183;-53
2022/06/02 06:54:00;;;;;;;5.13;1.30;;;;;;;17.66;55.17;98872.22;5052519;28;20620;-51
2022/06/02 06:56:34;;;;;;;2.57;1.37;;;;;;;17.75;51.17;98875.53;5052641;28;20193;-50
2022/06/02 06:59:17;;;;;;;4.10;1.20;;;;;;;17.71;56.42;98866.38;5051896;28;20215;-51
2022/06/02 07:01:59;;;;;;;4.30;1.50;;;;;;;17.82;55.30;98876.41;5064944;28;20193;-50
2022/06/02 07:04:39;;;;;;;1.30;1.20;;;;;;;17.99;56.23;98862.91;5094367;28;20184;-51
2022/06/02 07:07:13;;;;;;;2.03;1.23;;;;;;;18.09;55.51;98866.03;5094087;28;20597;-51
2022/06/02 07:09:55;;;;;;;2.50;1.13;;;;;;;18.13;55.35;98866.47;5094588;28;20260;-51
2022/06/02 07:15:25;;;;;;;4.17;1.30;;;;;;;18.44;55.18;98860.75;5093421;28;20804;-51
2022/06/02 07:18:02;;;;;;;1.80;1.30;;;;;;;18.49;52.58;98864.63;5093681;28;20265;-51
2022/06/02 07:20:37;;;;;;;3.13;1.50;;;;;;;18.40;49.15;98864.78;5093671;28;20201;-51
2022/06/02 07:23:12;;;;;;;2.93;1.30;;;;;;;18.59;48.38;98865.06;5094097;28;20206;-51
2022/06/02 07:25:51;;;;;;;1.07;0.93;;;;;;;18.62;46.42;98871.78;5094146;28;20648;-51
2022/06/02 07:28:30;;;;;;;1.63;0.97;;;;;;;18.77;48.91;98876.94;5093257;28;20559;-52
2022/06/02 07:31:11;;;;;;;5.20;1.40;;;;;;;18.89;47.62;98876.16;5093514;28;20196;-51
2022/06/02 07:33:57;;;;;;;1.77;0.90;;;;;;;18.88;45.43;98879.03;5093548;28;20177;-51
2022/06/02 07:36:50;;;;;;;3.20;1.13;;;;;;;18.81;44.84;98878.19;5093423;28;20593;-51
2022/06/02 07:39:44;;;;;;;2.40;1.10;;;;;;;18.84;48.38;98880.44;5079596;28;20291;-51
2022/06/02 07:42:29;;;;;;;3.00;1.30;;;;;;;19.07;45.44;98881.97;5093766;28;20203;-53
2022/06/02 07:45:32;;;;;;;3.47;1.13;;;;;;;19.05;44.22;98881.34;5093435;28;20208;-52
2022/06/02 07:48:40;;;;;;;3.50;1.10;;;;;;;19.16;44.39;98875.44;5089399;28;20248;-52
2022/06/02 07:51:17;;;;;;;3.87;1.00;;;;;;;19.30;43.23;98882.38;5088268;28;20212;-51
2022/06/02 07:54:18;;;;;;;2.47;1.10;;;;;;;19.22;43.38;98879.94;5093857;28;20272;-51
2022/06/02 07:56:58;;;;;;;3.23;1.10;;;;;;;19.42;43.91;98884.44;5093528;28;20188;-51
2022/06/02 07:59:42;;;;;;;2.50;1.17;;;;;;;19.45;41.41;98876.09;5093324;28;20571;-51
2022/06/02 08:02:37;;;;;;;2.77;1.07;;;;;;;19.45;43.13;98884.03;5093282;28;20185;-52
2022/06/02 08:05:22;;;;;;;2.50;1.20;;;;;;;19.52;43.25;98876.13;5090929;28;20558;-51
2022/06/02 08:07:53;;;;;;;3.50;1.00;;;;;;;19.39;40.55;98879.53;5091875;28;20304;-51
2022/06/02 08:10:30;;;;;;;1.50;1.17;;;;;;;19.50;40.63;98880.78;5093745;28;20185;-54
2022/06/02 08:13:03;;;;;;;1.57;1.20;;;;;;;19.61;41.88;98883.63;5093193;28;20196;-53
2022/06/02 08:15:41;;;;;;;3.10;1.20;;;;;;;19.69;40.69;98881.81;5093432;28;20220;-51
2022/06/02 08:18:26;;;;;;;2.13;1.10;;;;;;;19.75;41.25;98878.34;5091818;28;20248;-51
2022/06/02 08:21:15;;;;;;;2.60;1.23;;;;;;;19.72;41.38;98884.06;5093949;28;20209;-51
2022/06/02 08:24:12;;;;;;;2.37;1.10;;;;;;;19.84;40.65;98884.25;5092420;28;20603;-53
2022/06/02 08:26:48;;;;;;;3.00;1.10;;;;;;;19.79;40.47;98884.88;5094074;28;20194;-51
2022/06/02 08:29:29;;;;;;;1.50;1.00;;;;;;;19.52;40.33;98884.06;5096162;28;20708;-52
2022/06/02 08:32:13;;;;;;;7.10;2.40;;;;;;;19.79;40.99;98890.16;5097738;28;20527;-51
2022/06/02 08:34:52;;;;;;;0.97;0.73;;;;;;;19.99;40.59;98889.38;5097094;28;20186;-51
2022/06/02 08:37:29;;;;;;;1.20;0.97;;;;;;;20.14;40.38;98889.94;5097128;28;20185;-51
2022/06/02 08:40:16;;;;;;;4.53;1.20;;;;;;;20.25;40.26;98885.84;5097214;28;20190;-51
2022/06/02 08:43:04;;;;;;;3.13;0.93;;;;;;;20.26;39.32;98886.66;5097582;28;20195;-51
2022/06/02 08:45:58;;;;;;;2.63;1.57;;;;;;;20.26;40.32;98890.13;5096226;28;20194;-51
2022/06/02 08:49:20;;;;;;;2.57;1.13;;;;;;;20.46;41.19;98900.66;5096953;28;20577;-51
2022/06/02 08:52:25;;;;;;;2.73;1.20;;;;;;;20.67;40.00;98908.56;5014739;28;20584;-53
2022/06/02 08:55:30;;;;;;;4.20;1.30;;;;;;;20.54;41.96;98890.84;4998307;28;20236;-53
2022/06/02 08:58:24;;;;;;;4.83;1.40;;;;;;;20.62;40.66;98888.78;5095515;28;20232;-51
2022/06/02 09:01:07;;;;;;;3.40;1.20;;;;;;;20.34;41.75;98889.91;5096443;28;20269;-51
2022/06/02 09:04:10;;;;;;;2.83;1.20;;;;;;;20.05;42.00;98888.53;5095466;28;20201;-54
2022/06/02 09:07:34;;;;;;;2.20;0.97;;;;;;;20.39;41.62;98883.16;5096755;28;20629;-51
2022/06/02 09:10:34;;;;;;;2.47;1.37;;;;;;;20.55;39.78;98884.53;5053998;28;20613;-51
2022/06/02 09:13:43;;;;;;;3.03;1.20;;;;;;;20.70;40.81;98873.66;5096221;28;20256;-51
2022/06/02 09:16:21;;;;;;;3.13;1.30;;;;;;;20.91;41.75;98875.22;5096339;28;20740;-51
2022/06/02 09:19:22;;;;;;;1.30;1.10;;;;;;;20.88;40.67;98871.16;5096522;28;20219;-52
2022/06/02 09:22:05;;;;;;;1.43;1.20;;;;;;;21.29;39.77;98876.22;5094899;28;20772;-51
2022/06/02 09:24:42;;;;;;;3.00;1.57;;;;;;;21.12;38.26;98876.72;5096257;28;20195;-52
2022/06/02 09:28:03;;;;;;;1.43;1.00;;;;;;;21.32;38.02;98881.91;5096200;28;20266;-51
2022/06/02 09:30:42;;;;;;;1.50;1.27;;;;;;;21.07;39.79;98874.72;5096521;28;20727;-52
2022/06/02 09:33:39;;;;;;;3.40;1.33;;;;;;;21.08;39.61;98875.53;5096674;28;20524;-53
2022/06/02 09:36:31;;;;;;;1.97;1.10;;;;;;;21.31;39.79;98879.47;5095938;28;20208;-54
2022/06/02 09:39:15;;;;;;;2.73;1.33;;;;;;;21.32;39.92;98873.94;5095866;28;20226;-52
2022/06/02 09:41:58;;;;;;;1.43;0.80;;;;;;;21.17;40.26;98882.22;5095180;28;20199;-52
2022/06/02 09:44:28;;;;;;;2.67;1.20;;;;;;;21.46;39.98;98881.81;5096016;28;20189;-52
2022/06/02 09:47:24;;;;;;;6.03;1.40;;;;;;;21.67;39.77;98886.00;5095580;28;20188;-51
2022/06/02 09:50:14;;;;;;;1.70;1.10;;;;;;;21.57;38.57;98889.06;5096059;28;20190;-52
2022/06/02 09:53:02;;;;;;;2.23;1.10;;;;;;;21.37;38.87;98894.53;5095733;28;20222;-51
2022/06/02 09:55:38;;;;;;;4.57;1.23;;;;;;;20.97;39.03;98879.69;5095689;28;20207;-51
2022/06/02 09:58:20;;;;;;;4.13;1.20;;;;;;;21.09;39.36;98874.50;5095780;28;20642;-51
2022/06/02 10:01:21;;;;;;;5.10;1.50;;;;;;;21.08;39.60;98876.34;5095924;28;20388;-53
2022/06/02 10:04:23;;;;;;;2.47;1.07;;;;;;;21.29;39.06;98869.06;5089980;28;20251;-51
2022/06/02 10:07:14;;;;;;;2.03;1.23;;;;;;;21.21;39.02;98872.78;5095525;28;20633;-54
2022/06/02 10:10:33;;;;;;;3.87;1.53;;;;;;;21.45;39.31;98858.94;5096066;28;20429;-51
2022/06/02 10:13:28;;;;;;;6.03;1.33;;;;;;;21.80;38.30;98861.13;5095394;28;20610;-51
2022/06/02 10:16:29;;;;;;;1.60;1.20;;;;;;;21.62;37.83;98873.34;5094485;28;20227;-52
2022/06/02 10:19:31;;;;;;;3.47;1.27;;;;;;;21.63;37.89;98861.69;5093667;28;20212;-52
2022/06/02 10:22:06;;;;;;;5.73;1.50;;;;;;;21.67;39.20;98867.38;5095268;28;20186;-51
2022/06/02 10:25:30;;;;;;;1.60;1.10;;;;;;;21.67;38.64;98860.22;5095700;28;20553;-51
2022/06/02 10:28:28;;;;;;;3.20;1.70;;;;;;;21.87;38.22;98859.22;5087466;28;20221;-53
2022/06/02 10:31:35;;;;;;;3.67;1.33;;;;;;;21.68;38.21;98861.03;5094982;28;20562;-51
2022/06/02 10:34:34;;;;;;;3.27;1.10;;;;;;;21.52;38.12;98862.34;5095347;28;20453;-51
2022/06/02 10:37:23;;;;;;;4.60;1.30;;;;;;;21.87;38.83;98859.22;5094332;28;20213;-52
2022/06/02 10:40:09;;;;;;;3.43;1.20;;;;;;;21.88;38.19;98855.53;5095286;28;20245;-53
2022/06/02 10:42:58;;;;;;;3.33;1.00;;;;;;;21.86;38.44;98846.16;5094936;28;20183;-51
2022/06/02 10:45:46;;;;;;;2.83;1.30;;;;;;;21.95;37.96;98853.63;5094818;28;20203;-53
2022/06/02 10:48:49;;;;;;;4.83;1.47;;;;;;;22.15;38.43;98857.94;5093610;28;20213;-51
2022/06/02 10:51:54;;;;;;;6.60;1.30;;;;;;;22.41;37.47;98850.66;5094646;28;20201;-51
2022/06/02 10:54:45;;;;;;;2.87;1.13;;;;;;;22.12;37.42;98859.19;5094142;28;20201;-51
2022/06/02 10:57:55;;;;;;;3.73;1.07;;;;;;;22.65;36.06;98856.16;5093822;28;20299;-54
2022/06/02 11:00:54;;;;;;;1.83;1.00;;;;;;;22.90;36.51;98864.00;5094130;28;20401;-51
2022/06/02 11:04:01;;;;;;;2.10;1.20;;;;;;;22.95;36.64;98858.00;5094251;28;20240;-51
2022/06/02 11:07:00;;;;;;;2.30;1.00;;;;;;;22.82;35.92;98859.81;5094127;28;20186;-54
2022/06/02 11:10:05;;;;;;;2.20;1.10;;;;;;;22.96;35.39;98857.78;5093888;28;20183;-53
2022/06/02 11:13:20;;;;;;;2.83;1.17;;;;;;;22.76;36.25;98847.41;5094336;28;20225;-52
2022/06/02 11:16:29;;;;;;;4.13;1.40;;;;;;;23.32;35.94;98844.56;5093669;28;20205;-52
2022/06/02 11:19:45;;;;;;;3.90;1.23;;;;;;;23.68;35.30;98852.63;5093102;28;20686;-51
2022/06/02 11:22:55;;;;;;;2.33;1.10;;;;;;;24.04;36.41;98832.09;5092111;28;20205;-51
2022/06/02 11:25:41;;;;;;;2.43;0.90;;;;;;;24.35;33.67;98843.41;5093244;28;20201;-50
2022/06/02 11:28:36;;;;;;;2.27;1.10;;;;;;;24.64;33.39;98847.94;5092891;28;20296;-52
2022/06/02 11:31:51;;;;;;;3.03;1.20;;;;;;;24.73;33.66;98834.03;5091773;28;20182;-53
2022/06/02 11:34:33;;;;;;;2.50;1.10;;;;;;;24.65;33.92;98836.22;5050541;28;20198;-53
2022/06/02 11:37:36;;;;;;;2.83;1.20;;;;;;;23.89;34.62;98846.69;5050358;28;20229;-50
2022/06/02 11:40:22;;;;;;;6.73;1.20;;;;;;;24.05;34.31;98841.72;5084269;28;20231;-51
2022/06/02 11:42:58;;;;;;;3.63;1.10;;;;;;;23.99;34.51;98832.81;5092902;28;20207;-53
2022/06/02 11:45:57;;;;;;;2.30;1.07;;;;;;;24.03;33.96;98839.31;5093011;28;20205;-50
2022/06/02 11:49:12;;;;;;;2.07;1.13;;;;;;;23.62;35.00;98841.03;5083788;28;20219;-52
2022/06/02 11:52:03;;;;;;;5.10;1.20;;;;;;;24.34;34.33;98830.31;5039118;28;20281;-51
2022/06/02 11:54:59;;;;;;;5.83;1.33;;;;;;;24.13;34.29;98824.56;5091511;28;20196;-51
2022/06/02 11:57:49;;;;;;;2.63;1.53;;;;;;;23.98;34.72;98830.34;5086488;28;20252;-51
2022/06/02 12:01:00;;;;;;;1.47;1.00;;;;;;;24.14;35.22;98824.31;5092883;28;20182;-51
2022/06/02 12:03:52;;;;;;;3.17;1.27;;;;;;;23.71;35.07;98820.19;5092672;28;20269;-51
2022/06/02 12:06:49;;;;;;;2.07;1.23;;;;;;;23.96;35.16;98819.91;5092846;28;20172;-53
2022/06/02 12:09:33;;;;;;;4.57;1.40;;;;;;;24.00;34.47;98823.78;5090922;28;20209;-51
2022/06/02 12:12:22;;;;;;;4.10;1.27;;;;;;;24.99;33.00;98820.31;5092613;28;20273;-51
2022/06/02 12:15:21;;;;;;;4.90;1.33;;;;;;;25.08;33.29;98820.72;5092550;28;20202;-52
2022/06/02 12:18:02;;;;;;;3.17;1.23;;;;;;;25.70;33.15;98814.50;5092130;28;20301;-52
2022/06/02 12:21:01;;;;;;;3.73;1.37;;;;;;;25.96;32.47;98811.38;5092984;28;20187;-54
2022/06/02 12:23:46;;;;;;;3.30;1.30;;;;;;;26.26;32.04;98816.31;5093990;28;20656;-54
2022/06/02 12:26:29;;;;;;;4.27;1.27;;;;;;;26.19;30.92;98823.72;5095047;28;20189;-54
2022/06/02 12:29:11;;;;;;;3.17;1.00;;;;;;;25.24;31.95;98829.81;5094017;28;20224;-54
2022/06/02 12:32:03;;;;;;;2.00;1.00;;;;;;;25.19;32.87;98819.84;5094726;28;20643;-52
2022/06/02 12:34:56;;;;;;;2.57;0.87;;;;;;;24.86;33.72;98816.91;5092271;28;20184;-53
2022/06/02 12:38:01;;;;;;;3.63;1.63;;;;;;;24.72;33.57;98813.72;5092901;28;20221;-54
2022/06/02 12:40:37;;;;;;;4.07;1.27;;;;;;;25.40;33.08;98820.19;5091751;28;20198;-54
2022/06/02 12:43:24;;;;;;;5.90;1.53;;;;;;;24.35;34.03;98821.28;5092756;28;20198;-54
2022/06/02 12:45:59;;;;;;;4.67;1.20;;;;;;;25.03;33.73;98829.47;5092983;28;20184;-54
2022/06/02 12:49:11;;;;;;;1.60;1.10;;;;;;;24.51;34.30;98827.72;5092774;28;20765;-52
2022/06/02 12:52:11;;;;;;;2.77;1.20;;;;;;;24.39;34.25;98833.06;5092588;28;20332;-52
2022/06/02 12:55:08;;;;;;;4.43;1.10;;;;;;;24.91;33.16;98841.03;5092229;28;20550;-52
2022/06/02 12:58:00;;;;;;;2.57;1.23;;;;;;;24.01;34.78;98837.91;5091814;28;20216;-51
2022/06/02 13:00:44;;;;;;;3.47;1.30;;;;;;;24.31;35.10;98840.41;5091963;28;20179;-51
2022/06/02 13:03:40;;;;;;;3.03;1.20;;;;;;;24.56;34.78;98825.13;5092292;28;20189;-51
2022/06/02 13:07:06;;;;;;;2.27;1.30;;;;;;;24.56;33.55;98825.13;5092467;28;20197;-51
2022/06/02 13:09:50;;;;;;;3.17;1.00;;;;;;;23.94;34.28;98834.50;5036305;28;20294;-50
2022/06/02 13:12:49;;;;;;;5.23;1.20;;;;;;;24.37;34.43;98841.31;5093054;28;20193;-51
2022/06/02 13:15:52;;;;;;;4.63;1.43;;;;;;;24.21;33.81;98831.38;5088353;28;20205;-51